CES778 YMML-YSSY
Flight info
| Callsign | CES778 |
|---|---|
| Flight time | 1h 6m |
| Altitude | 39000 |
| Route | DOSEL2/27 DOSEL Y59 RIVET |
| Aircraft | A359/H-SDE2E3GHIJ3J4J5LM1ORWXY/LB1D1 |
Departure
| Time | 2026-05-08 04:54 |
|---|---|
| Airport | Melbourne Airport (YMML) |
Arrival
| Time | 2026-05-08 06:01 |
|---|---|
| Airport | Sydney Kingsford Smith International Airport (YSSY) |
| Time | Latitude | Longitude | Altitude | Speed | Heading |
|---|---|---|---|---|---|
| 2026-05-08 04:43 | -37.66826 | 144.84399 | 397 ft | 2 kts | 81° |
| 2026-05-08 04:43 | -37.66828 | 144.84385 | 399 ft | 2 kts | 81° |
| 2026-05-08 04:43 | -37.66830 | 144.84372 | 398 ft | 2 kts | 81° |
| 2026-05-08 04:44 | -37.66831 | 144.84358 | 398 ft | 2 kts | 81° |
| 2026-05-08 04:44 | -37.66832 | 144.84352 | 396 ft | 0 kts | 80° |
| 2026-05-08 04:44 | -37.66832 | 144.84351 | 396 ft | 0 kts | 79° |
| 2026-05-08 04:45 | -37.66834 | 144.84338 | 398 ft | 3 kts | 81° |
| 2026-05-08 04:45 | -37.66837 | 144.84314 | 392 ft | 3 kts | 81° |
| 2026-05-08 04:45 | -37.66840 | 144.84291 | 394 ft | 3 kts | 81° |
| 2026-05-08 04:45 | -37.66842 | 144.84268 | 395 ft | 3 kts | 81° |
| 2026-05-08 04:46 | -37.66845 | 144.84246 | 396 ft | 3 kts | 77° |
| 2026-05-08 04:46 | -37.66853 | 144.84223 | 390 ft | 3 kts | 34° |
| 2026-05-08 04:46 | -37.66872 | 144.84213 | 389 ft | 2 kts | 353° |
| 2026-05-08 04:48 | -37.66869 | 144.84212 | 393 ft | 2 kts | 351° |
| 2026-05-08 04:48 | -37.66824 | 144.84203 | 391 ft | 11 kts | 351° |
| 2026-05-08 04:49 | -37.66735 | 144.84184 | 399 ft | 13 kts | 351° |
| 2026-05-08 04:49 | -37.66648 | 144.84167 | 403 ft | 12 kts | 352° |
| 2026-05-08 04:49 | -37.66565 | 144.84163 | 407 ft | 11 kts | 19° |
| 2026-05-08 04:49 | -37.66536 | 144.84240 | 407 ft | 10 kts | 78° |
| 2026-05-08 04:50 | -37.66526 | 144.84324 | 410 ft | 6 kts | 81° |
| 2026-05-08 04:50 | -37.66526 | 144.84331 | 411 ft | 0 kts | 80° |
| 2026-05-08 04:50 | -37.66509 | 144.84470 | 407 ft | 27 kts | 81° |
| 2026-05-08 04:50 | -37.66482 | 144.84701 | 409 ft | 24 kts | 81° |
| 2026-05-08 04:51 | -37.66473 | 144.84780 | 406 ft | 8 kts | 83° |
| 2026-05-08 04:51 | -37.66460 | 144.84883 | 412 ft | 14 kts | 77° |
| 2026-05-08 04:51 | -37.66425 | 144.84956 | 411 ft | 6 kts | 16° |
| 2026-05-08 04:51 | -37.66385 | 144.84944 | 412 ft | 6 kts | 338° |
| 2026-05-08 04:52 | -37.66363 | 144.84925 | 408 ft | 0 kts | 322° |
| 2026-05-08 04:53 | -37.66334 | 144.84897 | 407 ft | 12 kts | 322° |
| 2026-05-08 04:53 | -37.66261 | 144.84824 | 408 ft | 15 kts | 322° |
| 2026-05-08 04:53 | -37.66221 | 144.84711 | 413 ft | 15 kts | 275° |
| 2026-05-08 04:53 | -37.66198 | 144.84314 | 412 ft | 82 kts | 274° |
| 2026-05-08 04:54 | -37.66142 | 144.83306 | 411 ft | 146 kts | 274° |
| 2026-05-08 04:54 | -37.66047 | 144.81909 | 949 ft | 160 kts | 269° |
| 2026-05-08 04:54 | -37.65970 | 144.80547 | 1840 ft | 160 kts | 267° |
| 2026-05-08 04:54 | -37.65901 | 144.79039 | 2207 ft | 187 kts | 268° |
| 2026-05-08 04:55 | -37.65811 | 144.77251 | 2493 ft | 220 kts | 269° |
| 2026-05-08 04:55 | -37.65694 | 144.75229 | 3095 ft | 237 kts | 270° |
| 2026-05-08 04:55 | -37.65561 | 144.73139 | 3976 ft | 241 kts | 269° |
| 2026-05-08 04:55 | -37.65428 | 144.71000 | 4653 ft | 246 kts | 268° |
| 2026-05-08 04:56 | -37.65279 | 144.68828 | 4952 ft | 252 kts | 271° |
| 2026-05-08 04:56 | -37.64743 | 144.66685 | 4984 ft | 265 kts | 294° |
| 2026-05-08 04:56 | -37.63418 | 144.65009 | 4991 ft | 281 kts | 325° |
| 2026-05-08 04:56 | -37.61582 | 144.64095 | 5025 ft | 286 kts | 339° |
| 2026-05-08 04:57 | -37.59656 | 144.63408 | 5335 ft | 291 kts | 340° |
| 2026-05-08 04:57 | -37.57690 | 144.62715 | 6164 ft | 295 kts | 341° |
| 2026-05-08 04:57 | -37.55639 | 144.62355 | 7068 ft | 303 kts | 1° |
| 2026-05-08 04:57 | -37.53605 | 144.63061 | 7933 ft | 307 kts | 31° |
| 2026-05-08 04:58 | -37.52011 | 144.64814 | 8843 ft | 305 kts | 54° |
| 2026-05-08 04:58 | -37.50705 | 144.66947 | 9735 ft | 309 kts | 57° |
| 2026-05-08 04:58 | -37.49416 | 144.69160 | 10486 ft | 321 kts | 58° |
| 2026-05-08 04:58 | -37.48045 | 144.71509 | 10814 ft | 345 kts | 57° |
| 2026-05-08 04:59 | -37.46707 | 144.74138 | 11165 ft | 365 kts | 63° |
| 2026-05-08 04:59 | -37.45417 | 144.76953 | 11773 ft | 377 kts | 64° |
| 2026-05-08 04:59 | -37.44104 | 144.79841 | 12551 ft | 383 kts | 64° |
| 2026-05-08 04:59 | -37.42772 | 144.82763 | 13384 ft | 388 kts | 64° |
| 2026-05-08 05:00 | -37.41419 | 144.85718 | 14195 ft | 391 kts | 63° |
| 2026-05-08 05:00 | -37.40049 | 144.88706 | 14912 ft | 397 kts | 63° |
| 2026-05-08 05:00 | -37.38663 | 144.91723 | 15657 ft | 401 kts | 63° |
| 2026-05-08 05:00 | -37.37279 | 144.94730 | 16397 ft | 404 kts | 63° |
| 2026-05-08 05:01 | -37.35859 | 144.97813 | 17106 ft | 409 kts | 62° |
| 2026-05-08 05:01 | -37.34426 | 145.00920 | 17853 ft | 413 kts | 62° |
| 2026-05-08 05:01 | -37.32975 | 145.04064 | 18616 ft | 416 kts | 62° |
| 2026-05-08 05:01 | -37.31516 | 145.07221 | 19256 ft | 420 kts | 62° |
| 2026-05-08 05:02 | -37.30040 | 145.10412 | 19928 ft | 424 kts | 63° |
| 2026-05-08 05:02 | -37.28555 | 145.13622 | 20621 ft | 427 kts | 63° |
| 2026-05-08 05:02 | -37.27054 | 145.16861 | 21309 ft | 431 kts | 63° |
| 2026-05-08 05:02 | -37.25541 | 145.20122 | 21989 ft | 434 kts | 63° |
| 2026-05-08 05:03 | -37.24530 | 145.22301 | 22324 ft | 437 kts | 63° |
| 2026-05-08 05:03 | -37.22989 | 145.25619 | 23108 ft | 441 kts | 63° |
| 2026-05-08 05:03 | -37.20932 | 145.30043 | 23999 ft | 445 kts | 63° |
| 2026-05-08 05:03 | -37.19875 | 145.32312 | 24363 ft | 448 kts | 63° |
| 2026-05-08 05:04 | -37.18295 | 145.35705 | 24889 ft | 452 kts | 63° |
| 2026-05-08 05:04 | -37.16115 | 145.40199 | 25611 ft | 458 kts | 59° |
| 2026-05-08 05:04 | -37.14912 | 145.42444 | 25977 ft | 461 kts | 58° |
| 2026-05-08 05:04 | -37.13057 | 145.45751 | 26496 ft | 466 kts | 57° |
| 2026-05-08 05:05 | -37.11145 | 145.49063 | 27002 ft | 471 kts | 57° |
| 2026-05-08 05:05 | -37.09208 | 145.52386 | 27568 ft | 474 kts | 57° |
| 2026-05-08 05:05 | -37.07256 | 145.55731 | 28105 ft | 478 kts | 57° |
| 2026-05-08 05:05 | -37.05292 | 145.59107 | 28616 ft | 481 kts | 57° |
| 2026-05-08 05:06 | -37.03319 | 145.62512 | 29132 ft | 485 kts | 57° |
| 2026-05-08 05:06 | -37.01335 | 145.65946 | 29613 ft | 488 kts | 57° |
| 2026-05-08 05:06 | -36.99335 | 145.69410 | 30012 ft | 494 kts | 57° |
| 2026-05-08 05:06 | -36.97317 | 145.72906 | 30451 ft | 497 kts | 57° |
| 2026-05-08 05:07 | -36.95287 | 145.76418 | 30871 ft | 500 kts | 57° |
| 2026-05-08 05:07 | -36.93274 | 145.79896 | 31319 ft | 502 kts | 57° |
| 2026-05-08 05:07 | -36.91218 | 145.83446 | 31683 ft | 505 kts | 57° |
| 2026-05-08 05:07 | -36.89152 | 145.87010 | 32050 ft | 508 kts | 57° |
| 2026-05-08 05:08 | -36.87071 | 145.90594 | 32387 ft | 510 kts | 57° |
| 2026-05-08 05:08 | -36.84981 | 145.94191 | 32740 ft | 513 kts | 57° |
| 2026-05-08 05:08 | -36.82852 | 145.97849 | 33081 ft | 515 kts | 57° |
| 2026-05-08 05:08 | -36.80771 | 146.01421 | 33402 ft | 518 kts | 57° |
| 2026-05-08 05:09 | -36.78646 | 146.05067 | 33721 ft | 520 kts | 57° |
| 2026-05-08 05:09 | -36.76509 | 146.08728 | 33979 ft | 523 kts | 57° |
| 2026-05-08 05:09 | -36.74366 | 146.12396 | 34348 ft | 523 kts | 57° |
| 2026-05-08 05:09 | -36.72222 | 146.16058 | 34778 ft | 520 kts | 57° |
| 2026-05-08 05:10 | -36.70090 | 146.19694 | 35213 ft | 518 kts | 57° |
| 2026-05-08 05:10 | -36.65854 | 146.26912 | 35981 ft | 515 kts | 56° |
| 2026-05-08 05:10 | -36.63743 | 146.30505 | 36337 ft | 514 kts | 56° |
| 2026-05-08 05:11 | -36.61635 | 146.34089 | 36690 ft | 513 kts | 56° |
| 2026-05-08 05:11 | -36.59529 | 146.37667 | 37036 ft | 511 kts | 56° |
| 2026-05-08 05:11 | -36.57426 | 146.41236 | 37364 ft | 510 kts | 56° |
| 2026-05-08 05:11 | -36.55329 | 146.44791 | 37696 ft | 509 kts | 56° |
| 2026-05-08 05:12 | -36.53233 | 146.48339 | 38023 ft | 508 kts | 55° |
| 2026-05-08 05:12 | -36.51141 | 146.51877 | 38343 ft | 507 kts | 55° |
| 2026-05-08 05:12 | -36.49056 | 146.55400 | 38635 ft | 506 kts | 54° |
| 2026-05-08 05:12 | -36.46966 | 146.58928 | 38820 ft | 508 kts | 54° |
| 2026-05-08 05:13 | -36.44872 | 146.62460 | 38982 ft | 509 kts | 54° |
| 2026-05-08 05:13 | -36.42770 | 146.66000 | 39139 ft | 509 kts | 54° |
| 2026-05-08 05:13 | -36.40691 | 146.69498 | 39183 ft | 510 kts | 54° |
| 2026-05-08 05:14 | -36.36482 | 146.76570 | 39184 ft | 509 kts | 54° |
| 2026-05-08 05:14 | -36.32269 | 146.83634 | 39184 ft | 510 kts | 54° |
| 2026-05-08 05:15 | -36.28044 | 146.90702 | 39184 ft | 509 kts | 54° |
| 2026-05-08 05:15 | -36.23826 | 146.97745 | 39184 ft | 509 kts | 54° |
| 2026-05-08 05:16 | -36.19604 | 147.04781 | 39182 ft | 509 kts | 53° |
| 2026-05-08 05:16 | -36.15378 | 147.11812 | 39203 ft | 509 kts | 53° |
| 2026-05-08 05:17 | -36.11145 | 147.18832 | 39185 ft | 509 kts | 53° |
| 2026-05-08 05:17 | -36.06904 | 147.25852 | 39179 ft | 510 kts | 53° |
| 2026-05-08 05:18 | -36.02651 | 147.32880 | 39189 ft | 511 kts | 53° |
| 2026-05-08 05:18 | -35.98387 | 147.39913 | 39200 ft | 512 kts | 53° |
| 2026-05-08 05:19 | -35.94106 | 147.46958 | 39189 ft | 513 kts | 53° |
| 2026-05-08 05:19 | -35.89848 | 147.53950 | 39188 ft | 513 kts | 53° |
| 2026-05-08 05:20 | -35.85558 | 147.60983 | 39189 ft | 513 kts | 53° |
| 2026-05-08 05:20 | -35.81261 | 147.68022 | 39195 ft | 514 kts | 53° |
| 2026-05-08 05:21 | -35.76947 | 147.75064 | 39190 ft | 516 kts | 53° |
| 2026-05-08 05:21 | -35.72619 | 147.82107 | 39197 ft | 516 kts | 53° |
| 2026-05-08 05:22 | -35.68282 | 147.89153 | 39195 ft | 516 kts | 53° |
| 2026-05-08 05:22 | -35.63939 | 147.96197 | 39197 ft | 517 kts | 52° |
| 2026-05-08 05:23 | -35.59576 | 148.03262 | 39194 ft | 519 kts | 52° |
| 2026-05-08 05:23 | -35.55229 | 148.10286 | 39197 ft | 520 kts | 52° |
| 2026-05-08 05:24 | -35.50822 | 148.17394 | 39185 ft | 520 kts | 52° |
| 2026-05-08 05:24 | -35.46430 | 148.24465 | 39195 ft | 522 kts | 52° |
| 2026-05-08 05:25 | -35.42046 | 148.31512 | 39194 ft | 524 kts | 52° |
| 2026-05-08 05:25 | -35.37618 | 148.38612 | 39187 ft | 524 kts | 52° |
| 2026-05-08 05:26 | -35.33183 | 148.45697 | 39189 ft | 524 kts | 51° |
| 2026-05-08 05:26 | -35.28737 | 148.52787 | 39183 ft | 526 kts | 51° |
| 2026-05-08 05:27 | -35.24262 | 148.59913 | 39177 ft | 528 kts | 51° |
| 2026-05-08 05:27 | -35.19804 | 148.66999 | 39177 ft | 529 kts | 51° |
| 2026-05-08 05:28 | -35.15934 | 148.73149 | 39153 ft | 528 kts | 51° |
| 2026-05-08 05:28 | -35.13685 | 148.76716 | 38958 ft | 527 kts | 51° |
| 2026-05-08 05:28 | -35.11434 | 148.80274 | 38705 ft | 530 kts | 51° |
| 2026-05-08 05:28 | -35.09176 | 148.83836 | 38418 ft | 531 kts | 51° |
| 2026-05-08 05:29 | -35.06907 | 148.87415 | 38144 ft | 532 kts | 51° |
| 2026-05-08 05:29 | -35.04639 | 148.90994 | 37852 ft | 534 kts | 51° |
| 2026-05-08 05:29 | -35.02365 | 148.94580 | 37566 ft | 535 kts | 52° |
| 2026-05-08 05:29 | -35.00085 | 148.98172 | 37309 ft | 535 kts | 52° |
| 2026-05-08 05:30 | -34.97804 | 149.01761 | 37052 ft | 536 kts | 52° |
| 2026-05-08 05:30 | -34.95524 | 149.05343 | 36588 ft | 533 kts | 52° |
| 2026-05-08 05:30 | -34.93247 | 149.08917 | 35915 ft | 533 kts | 52° |
| 2026-05-08 05:30 | -34.91000 | 149.12440 | 35197 ft | 534 kts | 53° |
| 2026-05-08 05:31 | -34.88716 | 149.16018 | 34417 ft | 536 kts | 53° |
| 2026-05-08 05:31 | -34.86417 | 149.19618 | 33532 ft | 540 kts | 53° |
| 2026-05-08 05:31 | -34.84104 | 149.23236 | 32662 ft | 541 kts | 53° |
| 2026-05-08 05:31 | -34.81788 | 149.26858 | 31792 ft | 542 kts | 52° |
| 2026-05-08 05:32 | -34.79464 | 149.30486 | 30917 ft | 544 kts | 52° |
| 2026-05-08 05:32 | -34.77142 | 149.34107 | 30361 ft | 538 kts | 52° |
| 2026-05-08 05:32 | -34.74867 | 149.37694 | 29672 ft | 533 kts | 54° |
| 2026-05-08 05:32 | -34.72951 | 149.41518 | 29098 ft | 526 kts | 61° |
| 2026-05-08 05:33 | -34.71174 | 149.45376 | 28507 ft | 520 kts | 62° |
| 2026-05-08 05:33 | -34.69488 | 149.49188 | 27916 ft | 515 kts | 63° |
| 2026-05-08 05:33 | -34.67826 | 149.53016 | 27341 ft | 510 kts | 64° |
| 2026-05-08 05:33 | -34.66186 | 149.56815 | 26770 ft | 505 kts | 64° |
| 2026-05-08 05:34 | -34.64557 | 149.60583 | 26204 ft | 501 kts | 64° |
| 2026-05-08 05:34 | -34.62938 | 149.64313 | 25631 ft | 497 kts | 64° |
| 2026-05-08 05:34 | -34.61330 | 149.68002 | 25040 ft | 493 kts | 64° |
| 2026-05-08 05:34 | -34.59729 | 149.71662 | 24487 ft | 488 kts | 64° |
| 2026-05-08 05:35 | -34.58140 | 149.75281 | 23924 ft | 484 kts | 64° |
| 2026-05-08 05:35 | -34.56558 | 149.78876 | 23308 ft | 480 kts | 64° |
| 2026-05-08 05:35 | -34.54991 | 149.82432 | 22723 ft | 475 kts | 64° |
| 2026-05-08 05:35 | -34.53443 | 149.85942 | 22141 ft | 469 kts | 64° |
| 2026-05-08 05:36 | -34.51911 | 149.89414 | 21602 ft | 465 kts | 64° |
| 2026-05-08 05:36 | -34.50390 | 149.92860 | 21034 ft | 461 kts | 64° |
| 2026-05-08 05:36 | -34.48887 | 149.96268 | 20455 ft | 457 kts | 65° |
| 2026-05-08 05:36 | -34.47390 | 149.99654 | 19903 ft | 454 kts | 65° |
| 2026-05-08 05:37 | -34.45905 | 150.03008 | 19337 ft | 451 kts | 65° |
| 2026-05-08 05:37 | -34.44426 | 150.06346 | 18757 ft | 448 kts | 65° |
| 2026-05-08 05:37 | -34.42953 | 150.09666 | 18162 ft | 446 kts | 65° |
| 2026-05-08 05:37 | -34.41508 | 150.12918 | 17565 ft | 441 kts | 65° |
| 2026-05-08 05:38 | -34.40061 | 150.16173 | 17000 ft | 437 kts | 64° |
| 2026-05-08 05:38 | -34.38623 | 150.19405 | 16445 ft | 434 kts | 64° |
| 2026-05-08 05:38 | -34.37198 | 150.22606 | 15920 ft | 430 kts | 64° |
| 2026-05-08 05:38 | -34.35803 | 150.25730 | 15790 ft | 413 kts | 64° |
| 2026-05-08 05:39 | -34.34461 | 150.28733 | 15681 ft | 398 kts | 64° |
| 2026-05-08 05:39 | -34.33166 | 150.31628 | 15525 ft | 384 kts | 65° |
| 2026-05-08 05:39 | -34.31918 | 150.34431 | 15417 ft | 372 kts | 65° |
| 2026-05-08 05:39 | -34.30705 | 150.37145 | 15220 ft | 362 kts | 65° |
| 2026-05-08 05:40 | -34.29518 | 150.39797 | 14948 ft | 355 kts | 65° |
| 2026-05-08 05:40 | -34.28345 | 150.42420 | 14517 ft | 354 kts | 65° |
| 2026-05-08 05:40 | -34.27181 | 150.45029 | 14140 ft | 350 kts | 65° |
| 2026-05-08 05:40 | -34.26032 | 150.47603 | 13811 ft | 346 kts | 64° |
| 2026-05-08 05:41 | -34.24890 | 150.50147 | 13444 ft | 342 kts | 64° |
| 2026-05-08 05:41 | -34.23763 | 150.52660 | 13092 ft | 337 kts | 64° |
| 2026-05-08 05:41 | -34.22653 | 150.55139 | 12780 ft | 333 kts | 64° |
| 2026-05-08 05:41 | -34.21554 | 150.57592 | 12451 ft | 330 kts | 64° |
| 2026-05-08 05:42 | -34.20464 | 150.60023 | 12126 ft | 328 kts | 64° |
| 2026-05-08 05:42 | -34.19384 | 150.62430 | 11808 ft | 324 kts | 64° |
| 2026-05-08 05:42 | -34.18328 | 150.64784 | 11494 ft | 321 kts | 64° |
| 2026-05-08 05:42 | -34.17257 | 150.67180 | 11188 ft | 319 kts | 64° |
| 2026-05-08 05:43 | -34.16213 | 150.69501 | 10875 ft | 317 kts | 64° |
| 2026-05-08 05:43 | -34.15165 | 150.71830 | 10568 ft | 314 kts | 64° |
| 2026-05-08 05:43 | -34.14123 | 150.74139 | 10263 ft | 312 kts | 64° |
| 2026-05-08 05:43 | -34.13089 | 150.76430 | 9954 ft | 311 kts | 65° |
| 2026-05-08 05:44 | -34.12046 | 150.78743 | 9608 ft | 315 kts | 65° |
| 2026-05-08 05:44 | -34.10993 | 150.81075 | 9272 ft | 315 kts | 65° |
| 2026-05-08 05:44 | -34.09947 | 150.83392 | 8830 ft | 314 kts | 65° |
| 2026-05-08 05:44 | -34.08913 | 150.85689 | 8496 ft | 309 kts | 66° |
| 2026-05-08 05:45 | -34.07887 | 150.87963 | 8219 ft | 308 kts | 65° |
| 2026-05-08 05:45 | -34.06868 | 150.90222 | 7973 ft | 306 kts | 66° |
| 2026-05-08 05:45 | -34.05856 | 150.92471 | 7716 ft | 305 kts | 66° |
| 2026-05-08 05:45 | -34.04848 | 150.94708 | 7455 ft | 302 kts | 65° |
| 2026-05-08 05:46 | -34.03848 | 150.96925 | 7205 ft | 300 kts | 65° |
| 2026-05-08 05:46 | -34.02852 | 150.99131 | 6973 ft | 299 kts | 65° |
| 2026-05-08 05:46 | -34.01865 | 151.01322 | 6723 ft | 296 kts | 66° |
| 2026-05-08 05:46 | -34.00897 | 151.03509 | 6470 ft | 294 kts | 66° |
| 2026-05-08 05:47 | -33.99955 | 151.05651 | 6228 ft | 293 kts | 66° |
| 2026-05-08 05:47 | -33.99077 | 151.07862 | 5977 ft | 290 kts | 77° |
| 2026-05-08 05:47 | -33.98710 | 151.10207 | 5826 ft | 283 kts | 91° |
| 2026-05-08 05:47 | -33.98564 | 151.12560 | 5796 ft | 282 kts | 92° |
| 2026-05-08 05:48 | -33.98445 | 151.14913 | 5794 ft | 277 kts | 92° |
| 2026-05-08 05:48 | -33.98322 | 151.17150 | 5808 ft | 259 kts | 93° |
| 2026-05-08 05:48 | -33.98187 | 151.19241 | 5808 ft | 241 kts | 92° |
| 2026-05-08 05:48 | -33.98048 | 151.21190 | 5812 ft | 228 kts | 92° |
| 2026-05-08 05:49 | -33.97957 | 151.22538 | 5813 ft | 252 kts | 92° |
| 2026-05-08 05:49 | -33.97838 | 151.24740 | 5606 ft | 277 kts | 93° |
| 2026-05-08 05:49 | -33.97716 | 151.27077 | 5247 ft | 281 kts | 93° |
| 2026-05-08 05:49 | -33.97592 | 151.29419 | 4894 ft | 280 kts | 93° |
| 2026-05-08 05:50 | -33.97466 | 151.31756 | 4543 ft | 279 kts | 92° |
| 2026-05-08 05:50 | -33.97359 | 151.34085 | 4188 ft | 278 kts | 92° |
| 2026-05-08 05:50 | -33.97276 | 151.36406 | 3875 ft | 281 kts | 93° |
| 2026-05-08 05:50 | -33.97200 | 151.38774 | 3808 ft | 284 kts | 92° |
| 2026-05-08 05:51 | -33.97126 | 151.41160 | 3803 ft | 285 kts | 93° |
| 2026-05-08 05:51 | -33.97061 | 151.43538 | 3805 ft | 280 kts | 93° |
| 2026-05-08 05:51 | -33.96992 | 151.45808 | 3810 ft | 262 kts | 92° |
| 2026-05-08 05:51 | -33.96912 | 151.47929 | 3811 ft | 245 kts | 93° |
| 2026-05-08 05:52 | -33.96830 | 151.49906 | 3817 ft | 227 kts | 92° |
| 2026-05-08 05:52 | -33.96517 | 151.51709 | 3771 ft | 220 kts | 66° |
| 2026-05-08 05:52 | -33.95507 | 151.53046 | 3549 ft | 217 kts | 28° |
| 2026-05-08 05:52 | -33.94094 | 151.53492 | 3301 ft | 207 kts | 353° |
| 2026-05-08 05:53 | -33.92691 | 151.53341 | 3064 ft | 204 kts | 343° |
| 2026-05-08 05:53 | -33.91294 | 151.53077 | 2840 ft | 201 kts | 344° |
| 2026-05-08 05:53 | -33.90025 | 151.52508 | 2796 ft | 189 kts | 314° |
| 2026-05-08 05:53 | -33.89192 | 151.51375 | 2802 ft | 177 kts | 296° |
| 2026-05-08 05:54 | -33.88531 | 151.50135 | 2799 ft | 175 kts | 294° |
| 2026-05-08 05:54 | -33.87899 | 151.48875 | 2803 ft | 176 kts | 292° |
| 2026-05-08 05:54 | -33.87370 | 151.47573 | 2790 ft | 170 kts | 272° |
| 2026-05-08 05:54 | -33.87399 | 151.46192 | 2806 ft | 163 kts | 256° |
| 2026-05-08 05:55 | -33.87656 | 151.44865 | 2811 ft | 163 kts | 251° |
| 2026-05-08 05:55 | -33.87958 | 151.43577 | 2801 ft | 162 kts | 251° |
| 2026-05-08 05:55 | -33.88272 | 151.42272 | 2807 ft | 162 kts | 250° |
| 2026-05-08 05:55 | -33.88580 | 151.40973 | 2808 ft | 161 kts | 251° |
| 2026-05-08 05:56 | -33.88879 | 151.39681 | 2808 ft | 160 kts | 251° |
| 2026-05-08 05:56 | -33.89177 | 151.38391 | 2800 ft | 161 kts | 250° |
| 2026-05-08 05:56 | -33.89478 | 151.37090 | 2801 ft | 161 kts | 251° |
| 2026-05-08 05:56 | -33.89777 | 151.35803 | 2803 ft | 160 kts | 250° |
| 2026-05-08 05:57 | -33.90083 | 151.34510 | 2717 ft | 163 kts | 251° |
| 2026-05-08 05:57 | -33.90394 | 151.33204 | 2496 ft | 161 kts | 252° |
| 2026-05-08 05:57 | -33.90699 | 151.31913 | 2267 ft | 160 kts | 252° |
| 2026-05-08 05:57 | -33.91002 | 151.30632 | 2043 ft | 159 kts | 252° |
| 2026-05-08 05:58 | -33.91300 | 151.29371 | 1832 ft | 151 kts | 253° |
| 2026-05-08 05:58 | -33.91577 | 151.28195 | 1646 ft | 139 kts | 252° |
| 2026-05-08 05:58 | -33.91827 | 151.27134 | 1460 ft | 125 kts | 252° |
| 2026-05-08 05:58 | -33.92055 | 151.26176 | 1297 ft | 114 kts | 254° |
| 2026-05-08 05:59 | -33.92272 | 151.25265 | 1146 ft | 114 kts | 253° |
| 2026-05-08 05:59 | -33.92496 | 151.24349 | 1012 ft | 115 kts | 253° |
| 2026-05-08 05:59 | -33.92718 | 151.23426 | 845 ft | 115 kts | 252° |
| 2026-05-08 05:59 | -33.92920 | 151.22490 | 683 ft | 115 kts | 253° |
| 2026-05-08 06:00 | -33.93148 | 151.21564 | 555 ft | 116 kts | 254° |
| 2026-05-08 06:00 | -33.93370 | 151.20634 | 364 ft | 118 kts | 254° |
| 2026-05-08 06:00 | -33.93595 | 151.19695 | 208 ft | 118 kts | 258° |
| 2026-05-08 06:00 | -33.93819 | 151.18728 | 50 ft | 122 kts | 255° |
| 2026-05-08 06:01 | -33.94032 | 151.17820 | 35 ft | 96 kts | 254° |
| 2026-05-08 06:01 | -33.94144 | 151.17338 | 35 ft | 38 kts | 254° |
| 2026-05-08 06:01 | -33.94208 | 151.17063 | 35 ft | 29 kts | 254° |
| 2026-05-08 06:01 | -33.94241 | 151.16918 | 35 ft | 16 kts | 262° |
| 2026-05-08 06:02 | -33.94195 | 151.16856 | 34 ft | 9 kts | 342° |
| 2026-05-08 06:02 | -33.94164 | 151.16847 | 35 ft | 5 kts | 347° |
| 2026-05-08 06:02 | -33.94133 | 151.16839 | 36 ft | 0 kts | 347° |
| 2026-05-08 06:04 | -33.94100 | 151.16829 | 36 ft | 9 kts | 347° |
| 2026-05-08 06:04 | -33.94027 | 151.16808 | 36 ft | 12 kts | 346° |
| 2026-05-08 06:04 | -33.93943 | 151.16779 | 36 ft | 13 kts | 344° |
| 2026-05-08 06:04 | -33.93876 | 151.16750 | 36 ft | 3 kts | 312° |
| 2026-05-08 06:05 | -33.93873 | 151.16720 | 36 ft | 5 kts | 267° |
| 2026-05-08 06:05 | -33.93883 | 151.16670 | 36 ft | 5 kts | 253° |
| 2026-05-08 06:05 | -33.93886 | 151.16657 | 36 ft | 0 kts | 253° |